Date,TemperatureHighF,TemperatureAvgF,TemperatureLowF,DewpointHighF,DewpointAvgF,DewpointLowF,HumidityHigh,HumidityAvg,HumidityLow,PressureMaxIn,PressureMinIn,WindSpeedMaxMPH,WindSpeedAvgMPH,GustSpeedMaxMPH,PrecipitationSumIn
2013-1-1,37.6,32.5,27.1,37.3,32.1,26.2,99,98,93,30.23,30.13,8,1,8,0.09
2013-1-2,36.0,26.3,17.2,30.5,23.5,17.0,99,90,61,30.34,30.22,8,1,8,0.00
2013-1-3,39.4,26.2,13.6,28.9,22.4,13.4,99,87,56,30.42,30.28,11,2,11,0.00
2013-1-4,40.5,31.9,22.6,31.4,27.5,22.4,99,85,62,30.45,30.38,17,3,17,0.00
2013-1-5,45.7,30.8,17.4,35.8,27.6,17.2,99,89,61,30.47,30.26,6,1,6,0.00
2013-1-6,42.4,34.2,28.2,38.7,32.6,25.6,99,93,86,30.45,30.13,17,3,17,0.00
2013-1-7,44.4,28.7,17.8,32.8,25.8,17.6,99,90,62,30.56,30.33,7,1,7,0.00
2013-1-8,54.9,32.3,18.1,40.8,29.0,17.9,99,90,58,30.43,30.31,10,1,10,0.00
2013-1-9,55.9,40.7,27.5,52.6,40.0,27.3,99,98,86,30.60,30.32,9,1,9,0.05
2013-1-10,45.7,36.0,24.4,45.4,35.6,24.2,99,99,89,30.61,30.19,6,1,6,0.09
2013-1-11,66.9,53.1,43.2,62.3,51.9,42.9,99,96,78,30.19,29.99,15,2,15,0.47
2013-1-12,68.7,59.7,46.4,68.2,59.4,31.2,99,99,99,30.13,29.92,10,2,10,0.00
2013-1-13,65.7,55.4,36.3,65.4,55.1,36.1,99,99,99,30.23,29.87,16,4,16,13.16
2013-1-14,36.3,29.0,25.2,36.1,28.0,24.9,99,96,84,30.53,30.22,9,1,9,0.67
2013-1-15,33.1,28.9,23.7,31.0,27.8,23.5,99,96,87,30.45,30.15,13,1,13,0.00
2013-1-16,36.3,31.9,29.7,36.1,31.7,29.4,99,99,98,30.19,30.06,4,1,4,0.08
2013-1-17,43.5,32.8,27.3,37.0,31.3,-15.7,99,94,75,30.47,30.19,8,1,8,0.04
2013-1-18,41.2,29.6,16.7,29.3,24.6,16.3,99,83,58,30.62,30.34,8,2,8,0.01
2013-1-19,56.7,44.9,32.9,35.7,31.9,27.8,82,63,41,30.35,30.04,17,5,17,0.00
2013-1-20,45.3,36.2,25.5,39.1,22.5,12.4,89,59,38,30.32,30.04,18,3,18,0.00
2013-1-21,29.5,23.0,13.3,21.9,13.2,1.6,83,66,51,30.34,30.18,21,4,21,0.00
2013-1-22,22.6,14.0,8.2,6.3,2.6,-0.2,89,61,42,30.48,30.33,13,3,13,0.00
2013-1-23,25.2,18.3,8.6,14.0,8.0,3.0,88,65,51,30.44,30.18,8,2,11,0.00
2013-1-24,27.3,20.5,14.9,16.2,7.5,2.6,74,58,37,30.66,30.18,19,4,19,0.00
2013-1-25,27.0,22.8,17.1,25.8,17.9,8.7,99,83,59,30.52,30.14,11,2,11,0.00
2013-1-26,37.6,24.5,15.3,26.4,20.9,14.9,99,88,60,30.52,30.23,11,2,11,0.04
2013-1-27,41.0,28.0,14.4,38.0,25.2,14.1,99,90,67,30.53,30.27,11,2,11,0.20
2013-1-28,53.2,47.8,38.3,52.8,47.5,38.0,99,99,96,30.28,30.14,11,3,11,0.08
2013-1-29,68.0,59.0,47.7,64.9,58.2,47.2,99,97,87,30.16,29.72,15,3,15,0.00
2013-1-30,69.3,54.4,33.1,66.6,53.8,30.7,99,98,89,29.73,29.40,22,6,22,23.72
2013-1-31,33.1,28.1,18.5,31.0,24.0,16.6,99,85,62,30.12,29.69,15,3,15,0.00
2013-2-1,30.4,12.6,6.1,17.3,7.1,1.5,99,79,60,30.51,30.11,17,4,17,0.00
2013-2-2,37.6,23.5,6.8,31.9,22.7,6.6,99,97,75,30.42,30.08,8,2,8,0.07
2013-2-3,32.0,23.5,11.1,27.4,21.6,10.9,99,93,73,30.23,30.02,12,3,12,0.00
2013-2-4,38.7,24.8,8.4,35.6,23.6,8.2,99,96,75,30.22,29.92,8,1,8,0.08
2013-2-5,42.3,35.7,30.9,39.8,34.9,30.7,99,97,87,30.11,29.94,7,1,7,0.13
2013-2-6,40.3,34.9,26.6,37.4,33.0,26.2,99,93,79,30.34,30.10,11,2,11,0.19
2013-2-7,64.9,43.4,28.9,46.0,37.7,28.7,99,84,49,30.29,29.92,8,2,8,0.00
2013-2-8,50.4,38.4,32.4,49.2,36.4,27.8,99,93,76,30.41,29.89,17,4,17,0.07
2013-2-9,46.8,32.1,18.9,30.1,24.4,18.6,99,76,43,30.51,30.31,8,2,8,0.00
2013-2-10,58.5,43.1,29.3,48.8,35.6,24.9,99,77,47,30.32,29.90,13,3,13,0.05
2013-2-11,55.6,49.2,36.1,52.4,41.2,31.2,99,76,52,30.16,29.88,18,6,18,0.00
2013-2-12,55.4,38.8,27.1,36.6,31.0,26.9,99,77,43,30.24,29.99,9,2,9,0.00
2013-2-13,37.4,31.6,25.0,37.0,31.3,24.7,99,99,94,30.00,29.85,8,1,8,0.12
2013-2-14,56.7,40.1,27.1,45.8,36.0,21.0,99,87,59,30.10,29.92,14,3,14,0.00
2013-2-15,46.2,34.6,22.3,41.0,31.7,21.9,99,90,62,30.25,30.08,17,2,17,0.00
2013-2-16,35.6,24.2,15.8,30.7,18.7,12.0,99,81,54,30.24,30.12,15,3,15,0.00
2013-2-17,36.3,22.7,10.9,21.6,13.3,8.6,99,72,35,30.33,30.20,10,2,10,0.00
2013-2-18,63.0,40.9,15.3,44.5,29.8,13.6,99,69,46,30.31,29.87,19,4,19,0.05
2013-2-19,45.9,34.7,25.3,45.1,30.5,17.6,99,85,67,30.22,29.78,20,6,20,0.24
2013-2-20,34.5,25.4,17.6,20.2,16.7,14.0,96,70,52,30.39,30.21,15,4,15,0.00
2013-2-21,36.3,25.8,13.5,29.6,21.7,13.2,99,85,64,30.44,30.13,17,3,17,0.00
2013-2-22,50.2,36.8,29.7,48.3,36.4,29.4,99,99,92,30.16,29.98,10,1,10,0.01
2013-2-23,51.1,37.5,28.4,36.9,32.4,27.9,99,84,53,30.09,29.98,10,2,10,24.19
2013-2-24,47.5,32.3,23.2,32.4,27.3,22.9,99,84,52,30.24,30.02,11,2,11,0.33
2013-2-25,50.7,34.9,18.5,33.8,26.6,18.3,99,75,50,30.27,29.98,18,3,18,0.00
2013-2-26,52.2,43.4,36.3,51.9,40.9,27.3,99,92,64,29.99,29.46,19,4,19,0.47
2013-2-27,41.5,37.6,33.3,41.3,37.2,33.0,99,98,93,29.84,29.63,13,3,13,0.04
2013-2-28,37.0,34.7,32.5,36.8,34.5,32.3,99,99,99,30.04,29.80,13,4,13,0.01
2013-3-1,37.4,34.3,31.3,37.1,34.0,30.9,99,99,99,30.12,30.01,10,2,10,0.09
2013-3-2,31.5,28.5,26.8,31.2,26.5,24.3,99,92,82,30.17,30.09,12,3,12,0.00
2013-3-3,34.5,28.1,18.0,29.8,24.6,17.7,99,87,70,30.18,30.12,11,2,11,0.01
2013-3-4,48.0,32.0,12.9,31.4,24.0,12.5,99,76,43,30.26,30.08,8,2,8,0.00
2013-3-5,41.5,37.3,30.0,40.0,34.4,28.9,99,90,70,30.10,29.65,11,3,11,0.37
2013-3-6,34.9,30.7,28.2,34.5,30.4,28.0,99,99,99,30.35,29.75,0,0,0,0.00
2013-3-7,42.3,34.1,29.1,38.4,33.1,28.9,99,96,81,30.47,30.33,4,0,4,0.22
2013-3-8,50.4,34.5,21.7,39.3,29.2,21.5,99,84,50,30.56,30.45,11,2,11,0.00
2013-3-9,64.2,42.1,23.2,45.3,35.0,22.9,99,80,44,30.48,30.14,10,2,10,0.00
2013-3-10,74.5,58.6,46.4,49.1,41.9,38.9,81,57,36,30.14,29.94,10,3,11,0.04
2013-3-11,55.0,48.3,37.8,54.8,47.8,37.3,99,98,82,29.97,29.72,15,3,15,1.02
2013-3-12,50.9,39.5,34.7,38.0,34.6,30.0,99,84,58,30.15,29.96,14,4,14,0.00
2013-3-13,37.2,31.7,25.7,36.1,27.6,22.4,99,86,65,30.41,30.10,22,5,22,0.01
2013-3-14,51.1,33.9,19.4,30.2,24.6,19.2,99,74,37,30.45,30.26,11,2,11,0.00
2013-3-15,57.9,41.4,24.6,45.5,37.0,24.4,99,86,63,30.27,29.88,8,2,8,0.00
2013-3-16,69.6,50.8,39.0,60.6,47.5,24.0,99,90,66,30.11,29.72,18,4,18,0.09
2013-3-17,39.4,35.3,32.5,38.6,35.0,32.3,99,99,96,30.23,30.06,15,4,15,0.38
2013-3-18,51.1,42.1,34.9,50.8,41.8,34.6,99,99,93,30.07,29.72,19,3,19,0.52
2013-3-19,50.4,39.4,30.9,38.9,28.0,17.2,99,69,33,30.20,29.94,23,5,23,0.00
2013-3-20,45.7,33.8,22.6,30.1,21.9,13.5,99,64,42,30.20,30.03,20,4,20,0.00
2013-3-21,40.5,26.9,19.2,19.9,16.0,10.5,89,66,40,30.14,30.03,13,3,13,0.00
2013-3-22,55.0,31.8,14.2,28.0,20.6,14.0,99,70,32,30.17,30.06,9,1,9,3.59
2013-3-23,58.3,41.5,26.8,33.0,28.7,25.1,96,66,35,30.16,29.96,11,2,11,0.00
2013-3-24,40.8,36.0,32.4,37.1,31.9,27.1,99,86,60,29.97,29.48,26,5,26,0.24
2013-3-25,35.6,33.2,30.4,35.0,32.9,30.1,99,99,99,30.04,29.51,18,2,18,0.22
2013-3-26,44.1,35.8,32.2,39.5,33.4,29.5,99,91,68,30.33,30.03,12,2,12,0.06
2013-3-27,34.5,32.1,27.1,32.2,31.2,26.9,99,96,83,30.37,30.32,7,2,7,0.00
2013-3-28,32.7,32.7,32.7,32.2,32.2,32.2,98,98,98,30.37,30.37,2,2,5,0.00
2013-3-29,32.7,32.7,32.7,32.2,32.2,32.2,98,98,98,30.37,30.37,2,2,5,0.00
2013-4-1,54.1,40.5,29.8,29.1,24.6,22.4,78,56,37,30.22,30.13,15,3,15,0.00
2013-4-2,54.3,37.5,20.5,31.5,23.2,17.7,99,62,30,30.35,30.21,12,3,12,0.00
2013-4-3,53.6,36.7,19.6,33.3,22.2,18.0,99,64,28,30.51,30.34,16,3,16,0.00
2013-4-4,58.8,41.8,28.8,33.8,26.8,21.4,92,60,34,30.42,30.08,11,2,11,0.00
2013-4-5,68.9,46.7,24.6,44.7,33.2,24.4,99,68,32,30.23,30.07,17,3,17,0.00
2013-4-6,74.3,51.7,30.9,46.4,37.0,28.5,99,64,36,30.30,30.01,16,3,16,0.00
2013-4-7,79.7,64.3,54.0,61.3,51.5,40.7,99,66,49,30.09,29.98,15,4,15,0.07
2013-4-8,78.3,62.1,49.8,63.9,57.4,49.6,99,86,60,30.10,29.99,17,3,17,0.01
2013-4-9,85.8,68.5,50.2,70.4,60.9,49.9,99,80,52,30.16,30.02,15,3,15,0.00
2013-4-10,88.0,73.6,60.8,74.1,66.9,60.5,99,82,55,30.08,29.86,17,4,17,0.00
2013-4-11,69.4,63.8,58.5,69.1,63.4,58.2,99,99,94,29.91,29.64,11,2,11,0.58
2013-4-12,58.5,48.8,35.8,58.2,44.8,35.5,99,87,62,30.03,29.63,18,4,18,0.08
2013-4-13,66.4,47.6,33.6,45.9,39.3,33.4,99,78,42,30.14,30.02,19,4,19,0.00
2013-4-14,77.4,55.1,33.4,54.8,45.6,33.2,99,75,41,30.15,29.96,12,2,12,0.00
2013-4-15,73.4,62.0,51.6,62.9,57.2,51.3,99,85,68,30.11,30.00,8,2,8,0.00
2013-4-16,88.0,65.2,50.0,75.7,62.2,23.8,99,91,65,30.27,30.06,19,2,19,0.66
2013-4-17,83.8,67.1,57.7,74.5,65.1,57.5,99,94,71,30.28,30.05,10,3,10,0.14
2013-4-18,86.7,73.7,59.4,73.7,65.0,59.1,99,77,53,30.06,29.72,21,5,21,0.00
2013-4-19,73.2,50.6,38.1,66.3,46.5,36.3,99,87,67,30.11,29.55,19,5,19,0.67
2013-4-20,60.4,45.2,32.7,41.3,35.2,30.6,99,73,40,30.48,30.11,15,3,15,0.01
2013-4-21,63.9,47.7,31.8,41.8,34.9,11.1,99,66,38,30.61,30.44,11,3,11,0.00
2013-4-22,79.7,54.5,32.0,52.8,43.1,31.7,99,72,37,30.45,30.22,10,2,10,29.86
2013-4-23,76.5,58.8,39.6,61.6,52.4,39.3,99,82,59,30.24,29.98,11,2,11,0.00
2013-4-24,64.2,51.8,34.2,61.7,49.2,33.9,99,92,78,30.33,29.89,14,4,14,0.83
2013-4-25,66.4,47.2,29.8,48.9,38.9,29.6,99,77,44,30.47,30.32,13,2,13,0.00
2013-4-26,68.2,50.0,29.8,48.4,38.5,29.4,99,72,36,30.55,30.42,8,1,8,0.00
2013-4-27,64.8,53.5,36.9,57.5,49.1,36.6,99,87,59,30.44,30.15,11,2,11,0.00
2013-4-28,72.9,60.2,53.6,70.2,59.6,32.1,99,98,86,30.16,29.91,12,2,12,0.26
2013-4-29,69.1,59.0,49.6,66.3,58.0,49.4,99,97,85,30.11,29.99,6,1,6,0.01
2013-4-30,86.4,63.6,43.7,68.2,56.7,43.4,99,83,44,30.15,30.06,10,1,10,0.01
2013-5-1,89.1,69.3,49.6,70.8,60.9,49.4,99,79,48,30.27,30.14,9,1,9,0.00
2013-5-2,81.9,67.7,55.6,66.9,61.2,55.3,99,82,60,30.30,30.18,11,2,11,0.00
2013-5-3,80.6,67.8,55.4,67.0,58.7,46.6,99,76,50,30.19,30.04,20,3,20,0.00
2013-5-4,80.8,66.1,57.0,59.7,52.9,46.3,99,65,47,30.10,30.00,15,4,15,0.00
2013-5-5,56.8,52.9,50.4,56.6,52.6,50.1,99,99,99,30.09,30.00,13,2,13,2.24
2013-5-6,68.7,59.1,52.0,66.0,58.6,51.7,99,98,90,30.04,29.96,21,4,21,0.67
2013-5-7,80.1,62.9,52.7,67.4,60.2,52.4,99,92,60,30.07,29.99,11,2,11,0.25
2013-5-8,82.2,63.9,50.2,71.7,60.1,49.9,99,89,66,30.09,30.01,15,2,15,0.46
2013-5-10,66.0,64.5,62.8,65.7,64.2,62.3,99,99,99,30.00,29.92,8,2,8,0.66
2013-5-11,66.0,66.0,66.0,59.9,59.9,59.9,81,81,81,29.99,29.99,2,2,2,0.00
2013-5-15,93.2,83.3,66.9,74.7,68.3,61.0,98,64,44,30.03,29.93,15,4,15,0.00
2013-5-16,84.0,68.5,59.5,76.2,65.6,59.3,99,91,69,30.09,29.96,8,1,8,24.84
2013-5-17,85.5,68.2,57.9,78.1,66.6,57.6,99,95,73,30.16,30.08,9,1,9,0.12
2013-5-18,87.1,70.2,63.3,80.1,69.0,63.0,99,96,77,30.16,30.05,8,1,8,0.86
2013-5-19,95.5,74.4,61.5,81.0,70.8,28.8,99,90,61,30.12,29.99,6,1,6,0.01
2013-5-20,97.0,77.2,64.6,85.4,74.2,64.1,99,92,69,30.12,29.99,10,1,10,0.00
2013-5-21,90.9,75.4,65.3,81.3,72.2,65.0,99,91,63,30.09,29.91,15,2,15,0.01
2013-5-22,86.9,71.4,60.6,77.5,68.6,60.3,99,92,71,29.97,29.84,11,2,11,0.34
2013-5-23,77.0,65.5,54.9,75.1,63.8,54.4,99,94,72,30.17,29.91,12,2,12,0.04
2013-5-24,74.8,58.6,45.9,54.4,50.0,44.7,99,77,42,30.42,30.16,16,4,16,0.01
2013-5-25,72.1,56.3,40.5,57.1,49.9,40.2,99,82,52,30.49,30.30,10,1,10,0.00
2013-5-26,81.9,63.7,53.1,62.0,56.4,52.8,99,81,48,30.40,30.26,9,1,9,0.00
2013-5-27,92.1,71.4,53.8,74.2,63.3,25.7,99,79,50,30.31,30.06,11,2,11,0.13
2013-5-28,88.9,75.7,65.3,78.1,70.5,65.0,99,86,60,30.15,30.04,14,2,14,0.01
2013-5-29,94.8,78.5,65.8,78.6,71.8,65.5,99,83,54,30.20,30.09,14,2,14,0.00
2013-5-30,95.4,78.2,63.0,81.7,73.1,62.5,99,86,62,30.25,30.11,10,1,10,0.00
2013-5-31,91.6,73.3,64.2,81.5,71.2,36.4,99,94,69,30.18,30.05,15,2,15,13.95
2013-6-1,88.9,74.5,65.8,81.7,73.2,-3.3,99,96,77,30.08,29.90,15,2,15,2.04
2013-6-2,87.3,73.6,65.1,74.8,69.5,31.8,99,89,62,30.02,29.93,9,2,9,0.00
2013-6-3,82.8,67.2,54.3,66.8,61.7,54.0,99,85,56,30.16,30.01,10,2,10,0.00
2013-6-4,86.2,65.1,48.9,62.0,54.8,48.7,99,76,37,30.24,30.14,13,1,13,0.00
2013-6-5,93.4,68.6,51.6,76.9,63.1,24.8,99,86,55,30.18,29.96,8,1,8,0.02
2013-6-6,117.0,69.1,-6.9,99.9,68.2,61.2,99,97,81,29.99,29.87,13,1,13,0.33
2013-6-7,85.1,69.4,59.5,71.5,65.0,59.3,99,88,59,29.98,29.88,10,2,10,0.00
2013-6-8,88.5,70.8,57.4,75.4,66.6,57.1,99,88,64,30.13,29.97,7,1,7,0.00
2013-6-9,91.9,72.3,58.1,78.5,69.3,57.8,99,92,60,30.18,30.01,11,1,11,0.00
2013-6-10,87.1,71.7,59.2,81.1,70.2,35.1,99,96,35,30.02,29.90,13,2,13,0.64
2013-6-11,95.4,76.3,62.2,80.8,71.8,62.0,99,88,58,30.08,29.97,9,2,9,0.00
2013-6-12,99.9,81.4,68.4,89.6,78.9,34.1,99,93,69,30.04,29.86,9,1,9,0.00
2013-6-13,88.0,76.8,66.2,82.3,73.3,63.9,99,91,57,30.03,29.72,32,3,32,12.66
2013-6-14,92.8,71.8,54.9,73.6,65.1,54.6,99,83,48,30.15,30.01,9,2,9,0.00
2013-6-15,92.7,73.5,55.6,78.5,67.7,55.3,99,85,57,30.23,30.06,9,1,9,0.00
2013-6-16,82.8,71.8,64.6,81.5,71.4,64.3,99,99,92,30.15,30.06,7,1,7,0.20
2013-6-17,98.1,77.4,63.5,83.3,73.7,63.2,99,90,57,30.09,29.97,8,1,8,0.00
2013-6-18,99.3,73.9,63.5,83.0,70.6,63.2,99,91,57,30.08,29.94,8,1,8,1.88
2013-6-19,95.0,72.7,57.9,72.9,65.3,57.6,99,82,45,30.22,30.08,11,1,11,0.01
2013-6-20,100.0,75.2,55.9,76.9,66.6,55.7,99,80,41,30.30,30.21,9,0,9,0.00
2013-6-21,101.0,77.9,59.7,82.4,71.5,59.4,99,84,53,30.31,30.22,5,1,5,0.00
2013-6-22,103.0,79.7,64.8,85.0,74.6,64.5,99,87,54,30.30,30.16,10,1,10,0.00
2013-6-23,99.1,78.5,63.9,84.3,73.7,63.4,99,87,57,30.26,30.16,11,1,11,0.00
2013-6-24,96.3,77.6,64.4,85.5,74.8,64.1,99,92,69,30.25,30.14,8,1,8,0.00
2013-6-25,100.0,81.8,66.7,88.3,78.0,66.3,99,90,65,30.18,30.00,11,2,11,0.00
2013-6-26,95.4,73.6,-8.3,87.8,72.5,-8.5,99,97,75,30.06,29.88,14,1,14,1.62
2013-6-27,68.5,62.5,-8.3,68.2,59.2,-8.5,99,93,35,29.91,29.86,2,1,2,195.10